sensor_id;sensor_type;location;lat;lon;timestamp;pressure;altitude;pressure_sealevel;temperature;humidity
21781;BME280;52576;53.614;9.894;2023-02-12T00:01:00;103291.81;;;6.15;93.58
21781;BME280;52576;53.614;9.894;2023-02-12T00:03:04;103299.66;;;6.13;93.51
21781;BME280;52576;53.614;9.894;2023-02-12T00:05:07;103291.84;;;6.12;93.47
21781;BME280;52576;53.614;9.894;2023-02-12T00:07:12;103300.53;;;6.11;93.52
21781;BME280;52576;53.614;9.894;2023-02-12T00:09:15;103290.13;;;6.08;93.58
21781;BME280;52576;53.614;9.894;2023-02-12T00:11:19;103303.16;;;6.06;93.46
21781;BME280;52576;53.614;9.894;2023-02-12T00:13:23;103304.91;;;6.06;93.44
21781;BME280;52576;53.614;9.894;2023-02-12T00:15:27;103311.84;;;6.05;93.52
21781;BME280;52576;53.614;9.894;2023-02-12T00:17:30;103316.19;;;6.06;93.47
21781;BME280;52576;53.614;9.894;2023-02-12T00:19:33;103317.06;;;6.05;93.47
21781;BME280;52576;53.614;9.894;2023-02-12T00:21:36;103310.97;;;6.05;93.53
21781;BME280;52576;53.614;9.894;2023-02-12T00:23:41;103311.84;;;6.04;93.59
21781;BME280;52576;53.614;9.894;2023-02-12T00:25:44;103310.13;;;6.04;93.45
21781;BME280;52576;53.614;9.894;2023-02-12T00:27:47;103313.59;;;6.05;93.53
21781;BME280;52576;53.614;9.894;2023-02-12T00:29:50;103315.31;;;6.04;93.45
21781;BME280;52576;53.614;9.894;2023-02-12T00:31:53;103324.88;;;6.05;93.55
21781;BME280;52576;53.614;9.894;2023-02-12T00:33:57;103318.78;;;6.06;93.40
21781;BME280;52576;53.614;9.894;2023-02-12T00:36:01;103323.13;;;6.06;93.42
21781;BME280;52576;53.614;9.894;2023-02-12T00:38:05;103329.19;;;6.06;93.55
21781;BME280;52576;53.614;9.894;2023-02-12T00:40:10;103326.59;;;6.05;93.60
21781;BME280;52576;53.614;9.894;2023-02-12T00:42:13;103328.34;;;6.04;93.41
21781;BME280;52576;53.614;9.894;2023-02-12T00:44:16;103335.28;;;6.04;93.39
21781;BME280;52576;53.614;9.894;2023-02-12T00:46:19;103334.41;;;6.05;93.51
21781;BME280;52576;53.614;9.894;2023-02-12T00:48:23;103326.59;;;6.05;93.47
21781;BME280;52576;53.614;9.894;2023-02-12T00:50:26;103328.34;;;6.06;93.41
21781;BME280;52576;53.614;9.894;2023-02-12T00:52:34;103326.59;;;6.05;93.51
21781;BME280;52576;53.614;9.894;2023-02-12T00:54:37;103326.59;;;6.05;93.45
21781;BME280;52576;53.614;9.894;2023-02-12T00:56:42;103332.69;;;6.04;93.52
21781;BME280;52576;53.614;9.894;2023-02-12T00:58:45;103335.28;;;6.04;93.44
21781;BME280;52576;53.614;9.894;2023-02-12T01:00:49;103331.84;;;6.02;93.45
21781;BME280;52576;53.614;9.894;2023-02-12T01:02:52;103344.00;;;6.01;93.35
21781;BME280;52576;53.614;9.894;2023-02-12T01:04:55;103337.06;;;5.99;93.38
21781;BME280;52576;53.614;9.894;2023-02-12T01:06:59;103340.53;;;5.98;93.43
21781;BME280;52576;53.614;9.894;2023-02-12T01:09:02;103341.44;;;5.97;93.48
21781;BME280;52576;53.614;9.894;2023-02-12T01:11:05;103340.59;;;5.95;93.39
21781;BME280;52576;53.614;9.894;2023-02-12T01:13:11;103344.06;;;5.94;93.59
21781;BME280;52576;53.614;9.894;2023-02-12T01:15:15;103338.88;;;5.91;93.21
21781;BME280;52576;53.614;9.894;2023-02-12T01:17:18;103340.63;;;5.89;93.42
21781;BME280;52576;53.614;9.894;2023-02-12T01:19:23;103342.34;;;5.90;93.26
21781;BME280;52576;53.614;9.894;2023-02-12T01:21:27;103341.47;;;5.89;93.35
21781;BME280;52576;53.614;9.894;2023-02-12T01:23:31;103341.47;;;5.88;93.26
21781;BME280;52576;53.614;9.894;2023-02-12T01:25:36;103345.81;;;5.89;93.22
21781;BME280;52576;53.614;9.894;2023-02-12T01:27:40;103344.06;;;5.88;93.43
21781;BME280;52576;53.614;9.894;2023-02-12T01:29:46;103343.19;;;5.87;93.39
21781;BME280;52576;53.614;9.894;2023-02-12T01:31:49;103338.00;;;5.87;93.23
21781;BME280;52576;53.614;9.894;2023-02-12T01:33:54;103342.31;;;5.88;93.24
21781;BME280;52576;53.614;9.894;2023-02-12T01:35:58;103341.47;;;5.88;93.20
21781;BME280;52576;53.614;9.894;2023-02-12T01:38:01;103344.06;;;5.88;93.25
21781;BME280;52576;53.614;9.894;2023-02-12T01:40:06;103351.88;;;5.88;93.26
21781;BME280;52576;53.614;9.894;2023-02-12T01:42:11;103342.31;;;5.87;93.22
21781;BME280;52576;53.614;9.894;2023-02-12T01:44:16;103347.53;;;5.87;93.17
21781;BME280;52576;53.614;9.894;2023-02-12T01:46:21;103352.75;;;5.87;93.25
21781;BME280;52576;53.614;9.894;2023-02-12T01:48:26;103358.81;;;5.87;93.21
21781;BME280;52576;53.614;9.894;2023-02-12T01:50:30;103363.16;;;5.88;93.26
21781;BME280;52576;53.614;9.894;2023-02-12T01:52:35;103360.53;;;5.87;93.29
21781;BME280;52576;53.614;9.894;2023-02-12T01:54:41;103358.84;;;5.89;93.28
21781;BME280;52576;53.614;9.894;2023-02-12T01:56:45;103359.69;;;5.88;93.26
21781;BME280;52576;53.614;9.894;2023-02-12T01:58:50;103351.88;;;5.88;93.33
21781;BME280;52576;53.614;9.894;2023-02-12T02:00:54;103356.22;;;5.89;93.22
21781;BME280;52576;53.614;9.894;2023-02-12T02:03:00;103351.03;;;5.89;93.16
21781;BME280;52576;53.614;9.894;2023-02-12T02:05:05;103346.66;;;5.88;93.14
21781;BME280;52576;53.614;9.894;2023-02-12T02:07:09;103347.53;;;5.87;93.13
21781;BME280;52576;53.614;9.894;2023-02-12T02:09:13;103345.81;;;5.86;93.18
21781;BME280;52576;53.614;9.894;2023-02-12T02:11:17;103344.94;;;5.85;93.19
21781;BME280;52576;53.614;9.894;2023-02-12T02:13:39;103351.88;;;5.86;93.30
21781;BME280;52576;53.614;9.894;2023-02-12T02:16:05;103344.94;;;5.85;93.25
21781;BME280;52576;53.614;9.894;2023-02-12T02:18:19;103354.47;;;5.85;93.12
21781;BME280;52576;53.614;9.894;2023-02-12T02:20:41;103349.28;;;5.85;93.23
21781;BME280;52576;53.614;9.894;2023-02-12T02:22:55;103350.16;;;5.85;93.00
21781;BME280;52576;53.614;9.894;2023-02-12T02:25:25;103348.41;;;5.87;93.18
21781;BME280;52576;53.614;9.894;2023-02-12T02:27:41;103351.88;;;5.86;93.11
21781;BME280;52576;53.614;9.894;2023-02-12T02:30:31;103356.22;;;5.86;93.09
21781;BME280;52576;53.614;9.894;2023-02-12T02:32:41;103351.00;;;5.86;93.04
21781;BME280;52576;53.614;9.894;2023-02-12T02:34:49;103357.94;;;5.85;93.08
21781;BME280;52576;53.614;9.894;2023-02-12T02:37:00;103359.69;;;5.85;93.04
21781;BME280;52576;53.614;9.894;2023-02-12T02:39:11;103349.28;;;5.85;93.04
21781;BME280;52576;53.614;9.894;2023-02-12T02:41:18;103357.09;;;5.85;93.01
21781;BME280;52576;53.614;9.894;2023-02-12T02:43:27;103364.03;;;5.84;93.14
21781;BME280;52576;53.614;9.894;2023-02-12T02:45:37;103368.38;;;5.84;92.95
21781;BME280;52576;53.614;9.894;2023-02-12T02:47:47;103357.97;;;5.84;93.05
21781;BME280;52576;53.614;9.894;2023-02-12T02:49:55;103361.44;;;5.83;93.00
21781;BME280;52576;53.614;9.894;2023-02-12T02:52:03;103366.63;;;5.83;92.97
21781;BME280;52576;53.614;9.894;2023-02-12T02:54:12;103361.44;;;5.83;92.96
21781;BME280;52576;53.614;9.894;2023-02-12T02:56:18;103356.22;;;5.83;93.00
21781;BME280;52576;53.614;9.894;2023-02-12T02:58:25;103360.56;;;5.82;92.95
21781;BME280;52576;53.614;9.894;2023-02-12T03:00:35;103363.16;;;5.84;92.83
21781;BME280;52576;53.614;9.894;2023-02-12T03:02:43;103358.81;;;5.84;92.84
21781;BME280;52576;53.614;9.894;2023-02-12T03:04:51;103362.28;;;5.85;92.80
21781;BME280;52576;53.614;9.894;2023-02-12T03:06:59;103364.91;;;5.85;92.99
21781;BME280;52576;53.614;9.894;2023-02-12T03:09:10;103366.63;;;5.86;92.82
21781;BME280;52576;53.614;9.894;2023-02-12T03:11:20;103357.94;;;5.87;92.97
21781;BME280;52576;53.614;9.894;2023-02-12T03:13:31;103364.00;;;5.87;92.78
21781;BME280;52576;53.614;9.894;2023-02-12T03:15:39;103364.88;;;5.88;92.94
21781;BME280;52576;53.614;9.894;2023-02-12T03:17:46;103371.84;;;5.89;92.87
21781;BME280;52576;53.614;9.894;2023-02-12T03:19:52;103368.38;;;5.90;92.96
21781;BME280;52576;53.614;9.894;2023-02-12T03:22:01;103364.91;;;5.91;92.91
21781;BME280;52576;53.614;9.894;2023-02-12T03:24:10;103361.41;;;5.92;92.91
21781;BME280;52576;53.614;9.894;2023-02-12T03:26:19;103363.16;;;5.93;92.97
21781;BME280;52576;53.614;9.894;2023-02-12T03:28:28;103365.75;;;5.93;92.89
21781;BME280;52576;53.614;9.894;2023-02-12T03:30:39;103368.38;;;5.93;92.93
21781;BME280;52576;53.614;9.894;2023-02-12T03:32:49;103363.16;;;5.93;92.88
21781;BME280;52576;53.614;9.894;2023-02-12T03:35:06;103365.75;;;5.93;92.96
21781;BME280;52576;53.614;9.894;2023-02-12T03:37:13;103369.22;;;5.92;92.77
21781;BME280;52576;53.614;9.894;2023-02-12T03:39:26;103368.38;;;5.93;92.89
21781;BME280;52576;53.614;9.894;2023-02-12T03:41:33;103372.69;;;5.92;92.90
21781;BME280;52576;53.614;9.894;2023-02-12T03:43:46;103376.19;;;5.91;92.93
21781;BME280;52576;53.614;9.894;2023-02-12T03:45:55;103377.91;;;5.91;92.97
21781;BME280;52576;53.614;9.894;2023-02-12T03:48:05;103373.59;;;5.90;92.95
21781;BME280;52576;53.614;9.894;2023-02-12T03:50:12;103375.28;;;5.88;92.93
21781;BME280;52576;53.614;9.894;2023-02-12T03:52:16;103390.91;;;5.88;92.94
21781;BME280;52576;53.614;9.894;2023-02-12T03:54:20;103390.91;;;5.88;92.73
21781;BME280;52576;53.614;9.894;2023-02-12T03:56:26;103383.97;;;5.87;92.95
21781;BME280;52576;53.614;9.894;2023-02-12T03:58:33;103394.38;;;5.87;92.82
21781;BME280;52576;53.614;9.894;2023-02-12T04:00:38;103387.44;;;5.86;92.82
21781;BME280;52576;53.614;9.894;2023-02-12T04:02:44;103394.38;;;5.85;92.92
21781;BME280;52576;53.614;9.894;2023-02-12T04:04:47;103396.13;;;5.86;92.84
21781;BME280;52576;53.614;9.894;2023-02-12T04:06:50;103399.59;;;5.85;92.85
21781;BME280;52576;53.614;9.894;2023-02-12T04:08:57;103391.78;;;5.85;92.82
21781;BME280;52576;53.614;9.894;2023-02-12T04:11:10;103388.31;;;5.85;92.84
21781;BME280;52576;53.614;9.894;2023-02-12T04:13:23;103381.38;;;5.85;93.00
21781;BME280;52576;53.614;9.894;2023-02-12T04:15:38;103390.06;;;5.86;92.88
21781;BME280;52576;53.614;9.894;2023-02-12T04:17:49;103389.19;;;5.87;92.92
21781;BME280;52576;53.614;9.894;2023-02-12T04:20:04;103404.78;;;5.87;92.92
21781;BME280;52576;53.614;9.894;2023-02-12T04:22:16;103396.13;;;5.88;92.96
21781;BME280;52576;53.614;9.894;2023-02-12T04:24:29;103400.47;;;5.89;92.80
21781;BME280;52576;53.614;9.894;2023-02-12T04:27:04;103398.75;;;5.89;93.00
21781;BME280;52576;53.614;9.894;2023-02-12T04:29:15;103400.47;;;5.90;93.02
21781;BME280;52576;53.614;9.894;2023-02-12T04:31:29;103408.28;;;5.92;92.99
21781;BME280;52576;53.614;9.894;2023-02-12T04:33:41;103410.88;;;5.93;93.02
21781;BME280;52576;53.614;9.894;2023-02-12T04:35:50;103404.81;;;5.93;92.96
21781;BME280;52576;53.614;9.894;2023-02-12T04:38:01;103408.28;;;5.92;93.22
21781;BME280;52576;53.614;9.894;2023-02-12T04:40:11;103410.00;;;5.93;93.09
21781;BME280;52576;53.614;9.894;2023-02-12T04:42:15;103416.09;;;5.93;92.97
21781;BME280;52576;53.614;9.894;2023-02-12T04:44:23;103412.59;;;5.94;92.86
21781;BME280;52576;53.614;9.894;2023-02-12T04:46:26;103413.47;;;5.95;93.12
21781;BME280;52576;53.614;9.894;2023-02-12T04:48:30;103413.47;;;5.95;93.10
21781;BME280;52576;53.614;9.894;2023-02-12T04:50:38;103416.06;;;5.95;93.02
21781;BME280;52576;53.614;9.894;2023-02-12T04:52:42;103420.41;;;5.96;92.90
21781;BME280;52576;53.614;9.894;2023-02-12T04:54:45;103406.53;;;5.97;93.04
21781;BME280;52576;53.614;9.894;2023-02-12T04:56:48;103412.59;;;5.97;93.02
21781;BME280;52576;53.614;9.894;2023-02-12T04:58:51;103406.53;;;5.97;93.02
21781;BME280;52576;53.614;9.894;2023-02-12T05:00:58;103409.09;;;5.98;93.12
21781;BME280;52576;53.614;9.894;2023-02-12T05:03:01;103413.41;;;6.01;93.06
21781;BME280;52576;53.614;9.894;2023-02-12T05:05:05;103408.19;;;6.01;93.15
21781;BME280;52576;53.614;9.894;2023-02-12T05:07:11;103410.81;;;6.02;93.09
21781;BME280;52576;53.614;9.894;2023-02-12T05:09:16;103402.97;;;6.04;93.19
21781;BME280;52576;53.614;9.894;2023-02-12T05:11:19;103409.06;;;6.06;93.08
21781;BME280;52576;53.614;9.894;2023-02-12T05:13:22;103413.38;;;6.07;93.13
21781;BME280;52576;53.614;9.894;2023-02-12T05:15:25;103415.97;;;6.08;93.28
21781;BME280;52576;53.614;9.894;2023-02-12T05:17:28;103415.09;;;6.11;92.97
21781;BME280;52576;53.614;9.894;2023-02-12T05:19:32;103415.09;;;6.11;93.18
21781;BME280;52576;53.614;9.894;2023-02-12T05:21:35;103415.97;;;6.13;93.15
21781;BME280;52576;53.614;9.894;2023-02-12T05:23:40;103415.09;;;6.14;93.28
21781;BME280;52576;53.614;9.894;2023-02-12T05:25:43;103416.81;;;6.15;93.20
21781;BME280;52576;53.614;9.894;2023-02-12T05:27:47;103415.06;;;6.17;93.35
21781;BME280;52576;53.614;9.894;2023-02-12T05:29:50;103419.41;;;6.18;93.29
21781;BME280;52576;53.614;9.894;2023-02-12T05:31:53;103413.31;;;6.19;93.30
21781;BME280;52576;53.614;9.894;2023-02-12T05:33:56;103415.91;;;6.21;93.38
21781;BME280;52576;53.614;9.894;2023-02-12T05:36:02;103422.00;;;6.21;93.26
21781;BME280;52576;53.614;9.894;2023-02-12T05:38:06;103428.06;;;6.20;93.31
21781;BME280;52576;53.614;9.894;2023-02-12T05:40:11;103428.06;;;6.20;93.27
21781;BME280;52576;53.614;9.894;2023-02-12T05:42:14;103429.81;;;6.20;93.47
21781;BME280;52576;53.614;9.894;2023-02-12T05:44:17;103429.81;;;6.20;93.38
21781;BME280;52576;53.614;9.894;2023-02-12T05:46:21;103428.06;;;6.20;93.27
21781;BME280;52576;53.614;9.894;2023-02-12T05:48:24;103432.41;;;6.21;93.33
21781;BME280;52576;53.614;9.894;2023-02-12T05:50:27;103441.09;;;6.20;93.34
21781;BME280;52576;53.614;9.894;2023-02-12T05:52:33;103437.63;;;6.21;93.49
21781;BME280;52576;53.614;9.894;2023-02-12T05:54:36;103429.81;;;6.23;93.48
21781;BME280;52576;53.614;9.894;2023-02-12T05:56:43;103437.56;;;6.24;93.47
21781;BME280;52576;53.614;9.894;2023-02-12T05:58:50;103432.38;;;6.24;93.38
21781;BME280;52576;53.614;9.894;2023-02-12T06:00:54;103433.22;;;6.25;93.50
21781;BME280;52576;53.614;9.894;2023-02-12T06:02:57;103435.81;;;6.26;93.51
21781;BME280;52576;53.614;9.894;2023-02-12T06:05:00;103431.47;;;6.28;93.42
21781;BME280;52576;53.614;9.894;2023-02-12T06:07:03;103435.81;;;6.29;93.48
21781;BME280;52576;53.614;9.894;2023-02-12T06:09:08;103434.94;;;6.30;93.55
21781;BME280;52576;53.614;9.894;2023-02-12T06:11:13;103438.41;;;6.32;93.26
21781;BME280;52576;53.614;9.894;2023-02-12T06:13:17;103434.94;;;6.32;93.41
21781;BME280;52576;53.614;9.894;2023-02-12T06:15:20;103431.47;;;6.31;93.50
21781;BME280;52576;53.614;9.894;2023-02-12T06:17:23;103435.78;;;6.32;93.48
21781;BME280;52576;53.614;9.894;2023-02-12T06:19:26;103443.59;;;6.32;93.57
21781;BME280;52576;53.614;9.894;2023-02-12T06:21:30;103438.41;;;6.32;93.54
21781;BME280;52576;53.614;9.894;2023-02-12T06:23:34;103441.88;;;6.33;93.63
21781;BME280;52576;53.614;9.894;2023-02-12T06:25:37;103438.41;;;6.32;93.49
21781;BME280;52576;53.614;9.894;2023-02-12T06:27:40;103439.25;;;6.34;93.45
21781;BME280;52576;53.614;9.894;2023-02-12T06:29:44;103438.38;;;6.34;93.46
21781;BME280;52576;53.614;9.894;2023-02-12T06:31:48;103442.72;;;6.33;93.63
21781;BME280;52576;53.614;9.894;2023-02-12T06:33:51;103448.81;;;6.34;93.45
21781;BME280;52576;53.614;9.894;2023-02-12T06:35:55;103442.72;;;6.33;93.51
21781;BME280;52576;53.614;9.894;2023-02-12T06:37:58;103447.94;;;6.33;93.51
21781;BME280;52576;53.614;9.894;2023-02-12T06:40:01;103447.94;;;6.35;93.61
21781;BME280;52576;53.614;9.894;2023-02-12T06:42:05;103445.31;;;6.36;93.54
21781;BME280;52576;53.614;9.894;2023-02-12T06:44:10;103447.94;;;6.36;93.58
21781;BME280;52576;53.614;9.894;2023-02-12T06:46:14;103440.09;;;6.38;93.52
21781;BME280;52576;53.614;9.894;2023-02-12T06:48:18;103452.25;;;6.39;93.45
21781;BME280;52576;53.614;9.894;2023-02-12T06:50:21;103452.25;;;6.40;93.54
21781;BME280;52576;53.614;9.894;2023-02-12T06:52:24;103454.84;;;6.40;93.56
21781;BME280;52576;53.614;9.894;2023-02-12T06:54:27;103456.59;;;6.41;93.53
21781;BME280;52576;53.614;9.894;2023-02-12T06:56:30;103467.00;;;6.44;93.63
21781;BME280;52576;53.614;9.894;2023-02-12T06:58:33;103471.34;;;6.42;93.46
21781;BME280;52576;53.614;9.894;2023-02-12T07:00:36;103473.94;;;6.45;93.39
21781;BME280;52576;53.614;9.894;2023-02-12T07:02:40;103480.88;;;6.46;93.58
21781;BME280;52576;53.614;9.894;2023-02-12T07:04:43;103477.38;;;6.47;93.53
21781;BME280;52576;53.614;9.894;2023-02-12T07:06:47;103483.47;;;6.50;93.42
21781;BME280;52576;53.614;9.894;2023-02-12T07:08:50;103485.16;;;6.51;93.43
21781;BME280;52576;53.614;9.894;2023-02-12T07:10:53;103487.75;;;6.51;93.53
21781;BME280;52576;53.614;9.894;2023-02-12T07:12:56;103491.22;;;6.53;93.46
21781;BME280;52576;53.614;9.894;2023-02-12T07:14:59;103487.75;;;6.54;93.42
21781;BME280;52576;53.614;9.894;2023-02-12T07:17:02;103495.56;;;6.55;93.42
21781;BME280;52576;53.614;9.894;2023-02-12T07:19:08;103498.16;;;6.57;93.44
21781;BME280;52576;53.614;9.894;2023-02-12T07:21:15;103492.94;;;6.57;93.47
21781;BME280;52576;53.614;9.894;2023-02-12T07:23:18;103496.41;;;6.59;93.52
21781;BME280;52576;53.614;9.894;2023-02-12T07:25:21;103503.34;;;6.60;93.63
21781;BME280;52576;53.614;9.894;2023-02-12T07:27:24;103506.81;;;6.59;93.49
21781;BME280;52576;53.614;9.894;2023-02-12T07:29:27;103508.56;;;6.60;93.55
21781;BME280;52576;53.614;9.894;2023-02-12T07:31:30;103508.56;;;6.60;93.47
21781;BME280;52576;53.614;9.894;2023-02-12T07:33:34;103504.22;;;6.60;93.66
21781;BME280;52576;53.614;9.894;2023-02-12T07:35:39;103512.03;;;6.62;93.51
21781;BME280;52576;53.614;9.894;2023-02-12T07:37:42;103507.69;;;6.62;93.47
21781;BME280;52576;53.614;9.894;2023-02-12T07:39:45;103510.28;;;6.64;93.51
21781;BME280;52576;53.614;9.894;2023-02-12T07:41:49;103511.16;;;6.64;93.54
21781;BME280;52576;53.614;9.894;2023-02-12T07:43:54;103518.94;;;6.66;93.43
21781;BME280;52576;53.614;9.894;2023-02-12T07:46:05;103513.75;;;6.66;93.61
21781;BME280;52576;53.614;9.894;2023-02-12T07:48:08;103512.00;;;6.68;93.57
21781;BME280;52576;53.614;9.894;2023-02-12T07:50:11;103513.72;;;6.69;93.46
21781;BME280;52576;53.614;9.894;2023-02-12T07:52:16;103507.63;;;6.70;93.50
21781;BME280;52576;53.614;9.894;2023-02-12T07:54:19;103513.72;;;6.69;93.53
21781;BME280;52576;53.614;9.894;2023-02-12T07:56:24;103514.59;;;6.69;93.50
21781;BME280;52576;53.614;9.894;2023-02-12T07:58:30;103515.44;;;6.70;93.56
21781;BME280;52576;53.614;9.894;2023-02-12T08:00:33;103516.31;;;6.70;93.58
21781;BME280;52576;53.614;9.894;2023-02-12T08:02:36;103517.19;;;6.71;93.46
21781;BME280;52576;53.614;9.894;2023-02-12T08:04:39;103512.84;;;6.73;93.45
21781;BME280;52576;53.614;9.894;2023-02-12T08:06:44;103514.56;;;6.74;93.50
21781;BME280;52576;53.614;9.894;2023-02-12T08:08:50;103511.91;;;6.77;93.32
21781;BME280;52576;53.614;9.894;2023-02-12T08:10:54;103511.03;;;6.78;93.45
21781;BME280;52576;53.614;9.894;2023-02-12T08:12:58;103507.53;;;6.80;93.64
21781;BME280;52576;53.614;9.894;2023-02-12T08:15:01;103513.59;;;6.84;93.48
21781;BME280;52576;53.614;9.894;2023-02-12T08:17:04;103515.31;;;6.85;93.48
21781;BME280;52576;53.614;9.894;2023-02-12T08:19:09;103519.66;;;6.88;93.45
21781;BME280;52576;53.614;9.894;2023-02-12T08:21:23;103522.28;;;6.86;93.42
21781;BME280;52576;53.614;9.894;2023-02-12T08:23:26;103529.22;;;6.87;93.38
21781;BME280;52576;53.614;9.894;2023-02-12T08:25:31;103523.13;;;6.87;93.41
21781;BME280;52576;53.614;9.894;2023-02-12T08:27:34;103525.75;;;6.88;93.35
21781;BME280;52576;53.614;9.894;2023-02-12T08:29:37;103530.94;;;6.88;93.48
21781;BME280;52576;53.614;9.894;2023-02-12T08:31:41;103531.81;;;6.89;93.39
21781;BME280;52576;53.614;9.894;2023-02-12T08:33:45;103539.63;;;6.90;93.38
21781;BME280;52576;53.614;9.894;2023-02-12T08:35:49;103532.66;;;6.92;93.37
21781;BME280;52576;53.614;9.894;2023-02-12T08:37:52;103532.66;;;6.92;93.37
21781;BME280;52576;53.614;9.894;2023-02-12T08:39:55;103537.84;;;6.95;93.30
21781;BME280;52576;53.614;9.894;2023-02-12T08:42:00;103536.09;;;6.97;93.25
21781;BME280;52576;53.614;9.894;2023-02-12T08:44:07;103533.47;;;7.00;93.37
21781;BME280;52576;53.614;9.894;2023-02-12T08:46:12;103544.72;;;7.02;93.29
21781;BME280;52576;53.614;9.894;2023-02-12T08:48:16;103543.84;;;7.05;93.30
21781;BME280;52576;53.614;9.894;2023-02-12T08:50:21;103549.03;;;7.08;93.23
21781;BME280;52576;53.614;9.894;2023-02-12T08:52:24;103542.06;;;7.10;93.18
21781;BME280;52576;53.614;9.894;2023-02-12T08:54:28;103551.59;;;7.14;93.29
21781;BME280;52576;53.614;9.894;2023-02-12T08:56:34;103551.59;;;7.15;93.14
21781;BME280;52576;53.614;9.894;2023-02-12T08:58:39;103549.84;;;7.18;93.22
21781;BME280;52576;53.614;9.894;2023-02-12T09:00:42;103550.69;;;7.20;93.19
21781;BME280;52576;53.614;9.894;2023-02-12T09:02:47;103552.41;;;7.22;93.16
21781;BME280;52576;53.614;9.894;2023-02-12T09:04:50;103556.75;;;7.25;93.08
21781;BME280;52576;53.614;9.894;2023-02-12T09:06:54;103558.47;;;7.27;93.11
21781;BME280;52576;53.614;9.894;2023-02-12T09:08:57;103561.88;;;7.31;93.04
21781;BME280;52576;53.614;9.894;2023-02-12T09:11:03;103560.13;;;7.33;92.94
21781;BME280;52576;53.614;9.894;2023-02-12T09:13:07;103559.25;;;7.35;93.20
21781;BME280;52576;53.614;9.894;2023-02-12T09:15:12;103560.09;;;7.39;92.91
21781;BME280;52576;53.614;9.894;2023-02-12T09:17:15;103559.19;;;7.41;92.91
21781;BME280;52576;53.614;9.894;2023-02-12T09:19:19;103566.16;;;7.42;92.87
21781;BME280;52576;53.614;9.894;2023-02-12T09:21:22;103554.81;;;7.45;92.82
21781;BME280;52576;53.614;9.894;2023-02-12T09:23:26;103556.56;;;7.46;92.71
21781;BME280;52576;53.614;9.894;2023-02-12T09:25:29;103564.38;;;7.47;92.64
21781;BME280;52576;53.614;9.894;2023-02-12T09:27:32;103559.13;;;7.49;92.64
21781;BME280;52576;53.614;9.894;2023-02-12T09:29:35;103556.50;;;7.52;92.59
21781;BME280;52576;53.614;9.894;2023-02-12T09:31:40;103559.09;;;7.52;92.55
21781;BME280;52576;53.614;9.894;2023-02-12T09:33:43;103563.44;;;7.53;92.43
21781;BME280;52576;53.614;9.894;2023-02-12T09:35:49;103567.75;;;7.56;92.28
21781;BME280;52576;53.614;9.894;2023-02-12T09:37:52;103562.50;;;7.59;92.32
21781;BME280;52576;53.614;9.894;2023-02-12T09:39:55;103564.22;;;7.61;92.28
21781;BME280;52576;53.614;9.894;2023-02-12T09:42:20;103563.34;;;7.62;92.19
21781;BME280;52576;53.614;9.894;2023-02-12T09:44:32;103571.16;;;7.64;92.13
21781;BME280;52576;53.614;9.894;2023-02-12T09:46:45;103584.19;;;7.65;91.96
21781;BME280;52576;53.614;9.894;2023-02-12T09:48:55;103580.72;;;7.63;91.92
21781;BME280;52576;53.614;9.894;2023-02-12T09:51:04;103587.72;;;7.61;91.90
21781;BME280;52576;53.614;9.894;2023-02-12T09:53:11;103575.53;;;7.60;91.74
21781;BME280;52576;53.614;9.894;2023-02-12T09:55:17;103585.97;;;7.60;91.72
21781;BME280;52576;53.614;9.894;2023-02-12T09:57:24;103586.88;;;7.56;91.49
21781;BME280;52576;53.614;9.894;2023-02-12T09:59:32;103587.78;;;7.54;91.46
21781;BME280;52576;53.614;9.894;2023-02-12T10:01:39;103591.31;;;7.51;91.47
21781;BME280;52576;53.614;9.894;2023-02-12T10:03:44;103595.66;;;7.51;91.50
21781;BME280;52576;53.614;9.894;2023-02-12T10:05:50;103597.41;;;7.50;91.39
21781;BME280;52576;53.614;9.894;2023-02-12T10:08:06;103600.00;;;7.50;91.28
21781;BME280;52576;53.614;9.894;2023-02-12T10:10:27;103602.63;;;7.52;91.22
21781;BME280;52576;53.614;9.894;2023-02-12T10:12:37;103604.34;;;7.53;91.30
21781;BME280;52576;53.614;9.894;2023-02-12T10:15:02;103606.09;;;7.52;91.16
21781;BME280;52576;53.614;9.894;2023-02-12T10:17:16;103598.25;;;7.52;91.24
21781;BME280;52576;53.614;9.894;2023-02-12T10:19:34;103602.63;;;7.50;91.20
21781;BME280;52576;53.614;9.894;2023-02-12T10:21:46;103605.22;;;7.50;91.04
21781;BME280;52576;53.614;9.894;2023-02-12T10:24:07;103602.63;;;7.50;90.93
21781;BME280;52576;53.614;9.894;2023-02-12T10:26:19;103599.16;;;7.49;91.12
21781;BME280;52576;53.614;9.894;2023-02-12T10:28:25;103598.28;;;7.49;90.93
21781;BME280;52576;53.614;9.894;2023-02-12T10:30:39;103595.66;;;7.51;91.02
21781;BME280;52576;53.614;9.894;2023-02-12T10:32:47;103598.25;;;7.52;91.06
21781;BME280;52576;53.614;9.894;2023-02-12T10:34:52;103598.25;;;7.52;91.00
21781;BME280;52576;53.614;9.894;2023-02-12T10:37:02;103595.59;;;7.54;91.04
21781;BME280;52576;53.614;9.894;2023-02-12T10:39:13;103584.28;;;7.55;91.05
21781;BME280;52576;53.614;9.894;2023-02-12T10:41:21;103590.38;;;7.55;90.94
21781;BME280;52576;53.614;9.894;2023-02-12T10:43:26;103594.72;;;7.56;91.01
21781;BME280;52576;53.614;9.894;2023-02-12T10:45:32;103589.47;;;7.58;90.89
21781;BME280;52576;53.614;9.894;2023-02-12T10:47:35;103595.56;;;7.58;90.85
21781;BME280;52576;53.614;9.894;2023-02-12T10:49:40;103590.34;;;7.58;90.85
21781;BME280;52576;53.614;9.894;2023-02-12T10:51:55;103589.47;;;7.59;90.89
21781;BME280;52576;53.614;9.894;2023-02-12T10:54:35;103598.16;;;7.61;90.87
21781;BME280;52576;53.614;9.894;2023-02-12T10:56:39;103596.41;;;7.63;90.81
21781;BME280;52576;53.614;9.894;2023-02-12T10:58:51;103589.44;;;7.62;90.78
21781;BME280;52576;53.614;9.894;2023-02-12T11:00:57;103591.19;;;7.63;90.75
21781;BME280;52576;53.614;9.894;2023-02-12T11:03:07;103584.22;;;7.64;90.74
21781;BME280;52576;53.614;9.894;2023-02-12T11:05:24;103586.81;;;7.65;90.74
21781;BME280;52576;53.614;9.894;2023-02-12T11:07:28;103585.94;;;7.66;90.66
21781;BME280;52576;53.614;9.894;2023-02-12T11:09:35;103589.38;;;7.68;90.69